createdAt,value
2023-03-25T00:02:23.342Z,99006.56
2023-03-25T00:04:52.636Z,99009.13
2023-03-25T00:07:21.756Z,98992.59
2023-03-25T00:09:51.369Z,99001.44
2023-03-25T00:12:19.705Z,99006.09
2023-03-25T00:14:54.435Z,99006.16
2023-03-25T00:17:23.588Z,98964.25
2023-03-25T00:19:52.105Z,99006.84
2023-03-25T00:22:20.522Z,98988.59
2023-03-25T00:24:48.492Z,98991.16
2023-03-25T00:27:18.437Z,98997.66
2023-03-25T00:29:47.158Z,98985.63
2023-03-25T00:32:17.136Z,98979.78
2023-03-25T00:34:47.379Z,98989.88
2023-03-25T00:37:17.720Z,98982.03
2023-03-25T00:39:46.201Z,98981.47
2023-03-25T00:42:26.028Z,98882.75
2023-03-25T00:44:54.681Z,98975.41
2023-03-25T00:47:24.471Z,98985.09
2023-03-25T00:49:52.709Z,98979.16
2023-03-25T00:52:23.076Z,98986.72
2023-03-25T00:54:52.799Z,98981.09
2023-03-25T00:57:23.634Z,98983.88
2023-03-25T00:59:51.663Z,98964.59
2023-03-25T01:02:21.432Z,98984.44
2023-03-25T01:04:50.686Z,98967.84
2023-03-25T01:07:18.758Z,98916.97
2023-03-25T01:09:47.506Z,98984.53
2023-03-25T01:12:16.914Z,98961.31
2023-03-25T01:14:46.163Z,98985.84
2023-03-25T01:17:15.976Z,98987.22
2023-03-25T01:19:43.857Z,98963.72
2023-03-25T01:22:11.738Z,98991.41
2023-03-25T01:24:39.715Z,98967.66
2023-03-25T01:27:08.552Z,98979.13
2023-03-25T01:29:36.553Z,98993.00
2023-03-25T01:32:06.172Z,98999.75
2023-03-25T01:34:38.497Z,98998.22
2023-03-25T01:37:06.641Z,98998.25
2023-03-25T01:39:34.730Z,98987.88
2023-03-25T01:42:02.783Z,98987.38
2023-03-25T01:45:07.911Z,98991.88
2023-03-25T01:47:37.178Z,99000.50
2023-03-25T01:50:05.732Z,98975.31
2023-03-25T01:52:33.532Z,98998.78
2023-03-25T01:55:01.591Z,98907.38
2023-03-25T01:57:31.538Z,98991.88
2023-03-25T01:59:59.811Z,99001.41
2023-03-25T02:02:34.897Z,99002.78
2023-03-25T02:05:10.930Z,98999.63
2023-03-25T02:07:46.773Z,98978.09
2023-03-25T02:10:15.457Z,98998.66
2023-03-25T02:12:45.677Z,99001.22
2023-03-25T02:15:16.095Z,98995.06
2023-03-25T02:17:59.500Z,98997.81
2023-03-25T02:21:02.902Z,98989.59
2023-03-25T02:24:07.326Z,98994.13
2023-03-25T02:27:15.375Z,98991.91
2023-03-25T02:30:06.925Z,98978.53
2023-03-25T02:32:56.932Z,98981.69
2023-03-25T02:35:36.341Z,98978.72
2023-03-25T02:38:31.258Z,98983.56
2023-03-25T02:41:05.315Z,98979.31
2023-03-25T02:43:43.089Z,98936.09
2023-03-25T02:46:16.567Z,98981.53
2023-03-25T02:48:54.838Z,98978.88
2023-03-25T02:51:29.347Z,98974.03
2023-03-25T02:54:03.849Z,98953.72
2023-03-25T02:56:33.504Z,98883.59
2023-03-25T02:59:03.862Z,98972.66
2023-03-25T03:01:35.124Z,98964.91
2023-03-25T03:04:03.910Z,98937.19
2023-03-25T03:06:42.765Z,98963.66
2023-03-25T03:09:35.484Z,98970.44
2023-03-25T03:12:16.817Z,98948.56
2023-03-25T03:15:04.847Z,98948.69
2023-03-25T03:17:41.976Z,98928.38
2023-03-25T03:20:17.753Z,98962.66
2023-03-25T03:22:52.615Z,98969.53
2023-03-25T03:25:29.449Z,98958.50
2023-03-25T03:28:04.611Z,98971.16
2023-03-25T03:30:39.218Z,98942.81
2023-03-25T03:33:13.508Z,98969.88
2023-03-25T03:35:50.362Z,98981.16
2023-03-25T03:38:23.946Z,98979.44
2023-03-25T03:40:57.197Z,98941.84
2023-03-25T03:43:28.360Z,98972.19
2023-03-25T03:46:00.744Z,98884.34
2023-03-25T03:48:35.302Z,98951.94
2023-03-25T03:51:08.765Z,98960.63
2023-03-25T03:53:41.295Z,98939.88
2023-03-25T03:56:14.771Z,98963.09
2023-03-25T03:58:43.935Z,98967.44
2023-03-25T04:01:15.027Z,98945.78
2023-03-25T04:03:48.592Z,98970.84
2023-03-25T04:06:22.099Z,98979.56
2023-03-25T04:08:58.824Z,98959.50
2023-03-25T04:11:32.179Z,98958.75
2023-03-25T04:14:03.942Z,98972.34
2023-03-25T04:16:34.669Z,98976.59
2023-03-25T04:19:05.487Z,98957.88
2023-03-25T04:21:34.046Z,98976.25
2023-03-25T04:24:01.876Z,98979.44
2023-03-25T04:26:34.164Z,98985.06
2023-03-25T04:29:03.710Z,98882.00
2023-03-25T04:31:32.122Z,98985.84
2023-03-25T04:34:02.206Z,98974.63
2023-03-25T04:36:33.551Z,98953.97
2023-03-25T04:39:01.360Z,98961.84
2023-03-25T04:41:29.219Z,98966.31
2023-03-25T04:43:58.448Z,98965.09
2023-03-25T04:46:26.869Z,98947.00
2023-03-25T04:48:56.867Z,98974.91
2023-03-25T04:51:24.916Z,98975.91
2023-03-25T04:53:52.710Z,98971.31
2023-03-25T04:56:20.695Z,98976.19
2023-03-25T04:58:48.627Z,98970.72
2023-03-25T05:01:23.952Z,98967.19
2023-03-25T05:03:51.819Z,98967.00
2023-03-25T05:06:19.728Z,98974.53
2023-03-25T05:08:47.535Z,98966.50
2023-03-25T05:11:15.378Z,98882.69
2023-03-25T05:13:43.197Z,98981.09
2023-03-25T05:16:11.057Z,98953.91
2023-03-25T05:18:40.288Z,98968.34
2023-03-25T05:21:08.785Z,98986.00
2023-03-25T05:23:36.610Z,98938.75
2023-03-25T05:26:06.314Z,98946.47
2023-03-25T05:28:34.269Z,98969.97
2023-03-25T05:31:08.186Z,98904.25
2023-03-25T05:33:37.084Z,98970.41
2023-03-25T05:36:09.180Z,98981.97
2023-03-25T05:38:37.424Z,98966.63
2023-03-25T05:41:05.195Z,98974.22
2023-03-25T05:43:35.726Z,98938.84
2023-03-25T05:46:04.607Z,98944.81
2023-03-25T05:48:33.230Z,98980.19
2023-03-25T05:51:04.616Z,98979.63
2023-03-25T05:53:33.822Z,98975.84
2023-03-25T05:56:01.803Z,98984.88
2023-03-25T05:58:29.775Z,98989.22
2023-03-25T06:00:57.649Z,98987.59
2023-03-25T06:03:26.100Z,98985.47
2023-03-25T06:05:54.197Z,98987.38
2023-03-25T06:08:26.348Z,98990.63
2023-03-25T06:10:58.391Z,98986.72
2023-03-25T06:13:26.336Z,98937.19
2023-03-25T06:15:59.939Z,99002.78
2023-03-25T06:18:27.765Z,98997.59
2023-03-25T06:20:57.663Z,98994.09
2023-03-25T06:23:26.428Z,98961.44
2023-03-25T06:25:56.060Z,98994.06
2023-03-25T06:28:24.150Z,98998.97
2023-03-25T06:30:52.019Z,98973.69
2023-03-25T06:33:42.352Z,98965.16
2023-03-25T06:36:11.344Z,99001.81
2023-03-25T06:38:39.730Z,99023.03
2023-03-25T06:41:13.907Z,99007.16
2023-03-25T06:43:43.022Z,98994.78
2023-03-25T06:46:29.351Z,99005.81
2023-03-25T06:49:18.056Z,99015.66
2023-03-25T06:51:46.544Z,99007.13
2023-03-25T06:54:14.958Z,98992.84
2023-03-25T06:56:44.103Z,99012.50
2023-03-25T06:59:11.963Z,99013.00
2023-03-25T07:01:39.883Z,98931.25
2023-03-25T07:04:07.735Z,99007.28
2023-03-25T07:06:35.632Z,99007.25
2023-03-25T07:09:03.724Z,99006.09
2023-03-25T07:11:33.219Z,98991.22
2023-03-25T07:14:02.409Z,99015.19
2023-03-25T07:16:30.988Z,98999.50
2023-03-25T07:18:59.149Z,98977.16
2023-03-25T07:21:27.477Z,98932.03
2023-03-25T07:23:56.306Z,99020.34
2023-03-25T07:26:24.108Z,99014.97
2023-03-25T07:28:51.953Z,98982.50
2023-03-25T07:31:21.296Z,99019.53
2023-03-25T07:33:49.248Z,99017.94
2023-03-25T07:36:17.638Z,99031.72
2023-03-25T07:38:46.216Z,99014.31
2023-03-25T07:41:14.545Z,99010.84
2023-03-25T07:43:59.664Z,98988.59
2023-03-25T07:46:32.961Z,99032.19
2023-03-25T07:49:00.955Z,99018.00
2023-03-25T07:51:30.126Z,98978.72
2023-03-25T07:54:04.938Z,99019.69
2023-03-25T07:56:34.576Z,99008.72
2023-03-25T07:59:02.916Z,99015.72
2023-03-25T08:01:32.275Z,99020.34
2023-03-25T08:04:00.400Z,99017.94
2023-03-25T08:06:28.296Z,99016.28
2023-03-25T08:08:56.696Z,99013.94
2023-03-25T08:11:24.818Z,98992.53
2023-03-25T08:13:52.691Z,99026.00
2023-03-25T08:16:20.949Z,99016.63
2023-03-25T08:18:52.899Z,99019.16
2023-03-25T08:21:25.045Z,99017.25
2023-03-25T08:23:54.878Z,99021.69
2023-03-25T08:26:22.906Z,99013.78
2023-03-25T08:28:50.993Z,99006.09
2023-03-25T08:31:20.238Z,99017.44
2023-03-25T08:33:48.280Z,99037.22
2023-03-25T08:36:19.660Z,99033.31
2023-03-25T08:38:48.020Z,99030.63
2023-03-25T08:41:15.855Z,99013.13
2023-03-25T08:43:45.065Z,99011.88
2023-03-25T08:46:13.098Z,99028.44
2023-03-25T08:48:41.396Z,99004.03
2023-03-25T08:51:09.519Z,98989.72
2023-03-25T08:53:38.727Z,99002.31
2023-03-25T08:56:08.233Z,99009.41
2023-03-25T08:58:36.184Z,99004.00
2023-03-25T09:01:05.398Z,98991.84
2023-03-25T09:03:34.060Z,99019.81
2023-03-25T09:06:05.399Z,99015.09
2023-03-25T09:08:33.802Z,98995.50
2023-03-25T09:11:03.056Z,99026.75
2023-03-25T09:13:30.925Z,99001.47
2023-03-25T09:15:59.262Z,99017.78
2023-03-25T09:18:27.340Z,99000.53
2023-03-25T09:20:59.715Z,99021.38
2023-03-25T09:23:28.022Z,99021.91
2023-03-25T09:25:56.562Z,99034.81
2023-03-25T09:28:25.732Z,99022.25
2023-03-25T09:30:54.918Z,99015.06
2023-03-25T09:33:22.847Z,99035.41
2023-03-25T09:35:51.546Z,99033.84
2023-03-25T09:38:19.533Z,99017.25
2023-03-25T09:40:47.513Z,99045.50
2023-03-25T09:43:30.914Z,99026.25
2023-03-25T09:46:00.263Z,99040.97
2023-03-25T09:48:34.321Z,99034.63
2023-03-25T09:51:05.809Z,99014.81
2023-03-25T09:53:39.890Z,99037.41
2023-03-25T09:56:14.930Z,99018.00
2023-03-25T09:58:46.349Z,99021.28
2023-03-25T10:01:27.689Z,99039.34
2023-03-25T10:04:03.238Z,99047.19
2023-03-25T10:06:33.571Z,99035.28
2023-03-25T10:09:07.451Z,99032.69
2023-03-25T10:11:43.098Z,99015.84
2023-03-25T10:14:15.704Z,99023.97
2023-03-25T10:16:56.006Z,99039.00
2023-03-25T10:19:31.169Z,99030.75
2023-03-25T10:22:03.869Z,99011.81
2023-03-25T10:24:35.384Z,99019.13
2023-03-25T10:27:06.570Z,99034.47
2023-03-25T10:29:40.376Z,99041.34
2023-03-25T10:32:16.860Z,99044.78
2023-03-25T10:34:49.907Z,99044.72
2023-03-25T10:37:28.883Z,99032.94
2023-03-25T10:40:00.561Z,99036.56
2023-03-25T10:42:33.271Z,98973.97
2023-03-25T10:45:02.613Z,99037.63
2023-03-25T10:47:34.260Z,99033.81
2023-03-25T10:50:04.559Z,99038.66
2023-03-25T10:52:32.239Z,99039.41
2023-03-25T10:55:00.521Z,99042.38
2023-03-25T10:57:30.906Z,99033.88
2023-03-25T11:00:08.971Z,99020.66
2023-03-25T11:02:36.909Z,99015.19
2023-03-25T11:05:08.559Z,99032.28
2023-03-25T11:07:39.872Z,99022.03
2023-03-25T11:10:16.138Z,99036.66
2023-03-25T11:12:45.403Z,99035.41
2023-03-25T11:15:17.647Z,99033.13
2023-03-25T11:17:47.989Z,99030.56
2023-03-25T11:20:21.511Z,99041.19
2023-03-25T11:22:52.539Z,99046.66
2023-03-25T11:25:25.663Z,98988.38
2023-03-25T11:27:57.317Z,99024.94
2023-03-25T11:30:27.332Z,99033.78
2023-03-25T11:33:01.033Z,99024.19
2023-03-25T11:35:31.435Z,99007.75
2023-03-25T11:38:01.527Z,99009.56
2023-03-25T11:40:31.882Z,99022.72
2023-03-25T11:43:01.553Z,99013.94
2023-03-25T11:45:37.708Z,99008.88
2023-03-25T11:48:13.114Z,99008.88
2023-03-25T11:50:47.396Z,98995.66
2023-03-25T11:53:18.332Z,99003.34
2023-03-25T11:55:48.006Z,99014.19
2023-03-25T11:58:18.063Z,99010.00
2023-03-25T12:00:50.212Z,99023.69
2023-03-25T12:03:22.829Z,99022.78
2023-03-25T12:06:02.001Z,99022.50
2023-03-25T12:08:31.774Z,98994.38
2023-03-25T12:11:05.507Z,98991.81
2023-03-25T12:13:45.291Z,98998.06
2023-03-25T12:16:29.115Z,99016.56
2023-03-25T12:19:12.298Z,99016.16
2023-03-25T12:22:03.675Z,99022.56
2023-03-25T12:24:49.198Z,98993.09
2023-03-25T12:27:32.152Z,99003.84
2023-03-25T12:30:07.295Z,99004.06
2023-03-25T12:32:43.789Z,99017.09
2023-03-25T12:35:29.181Z,99004.19
2023-03-25T12:38:20.648Z,99019.44
2023-03-25T12:41:05.615Z,99003.88
2023-03-25T12:43:41.261Z,98989.66
2023-03-25T12:46:20.621Z,99004.69
2023-03-25T12:49:05.135Z,99005.47
2023-03-25T12:51:47.665Z,98995.81
2023-03-25T12:54:33.515Z,99011.72
2023-03-25T12:57:13.364Z,99005.25
2023-03-25T13:00:09.063Z,98988.09
2023-03-25T13:03:07.263Z,98993.69
2023-03-25T13:05:42.876Z,99006.94
2023-03-25T13:08:16.814Z,99002.06
2023-03-25T13:10:47.071Z,98969.25
2023-03-25T13:13:17.305Z,99015.28
2023-03-25T13:15:48.125Z,99001.63
2023-03-25T13:18:19.663Z,98997.72
2023-03-25T13:20:54.472Z,98989.88
2023-03-25T13:23:25.338Z,99006.03
2023-03-25T13:25:57.658Z,98984.50
2023-03-25T13:28:30.556Z,98993.50
2023-03-25T13:30:59.598Z,99022.97
2023-03-25T13:33:31.121Z,99019.72
2023-03-25T13:36:07.962Z,99013.81
2023-03-25T13:38:42.817Z,99005.28
2023-03-25T13:41:14.081Z,99018.38
2023-03-25T13:43:53.597Z,98969.59
2023-03-25T13:46:25.796Z,99012.22
2023-03-25T13:48:57.845Z,98985.06
2023-03-25T13:51:27.403Z,99003.31
2023-03-25T13:53:59.851Z,98910.84
2023-03-25T13:56:58.847Z,99000.00
2023-03-25T13:59:51.904Z,98998.16
2023-03-25T14:02:42.982Z,98998.75
2023-03-25T14:05:38.314Z,99003.28
2023-03-25T14:08:26.425Z,99013.63
2023-03-25T14:11:00.643Z,99009.81
2023-03-25T14:13:33.333Z,98956.50
2023-03-25T14:16:06.202Z,99011.75
2023-03-25T14:18:42.016Z,98977.16
2023-03-25T14:21:16.757Z,99001.47
2023-03-25T14:23:46.312Z,99000.25
2023-03-25T14:26:18.158Z,99003.06
2023-03-25T14:28:47.747Z,99012.66
2023-03-25T14:31:33.198Z,99000.75
2023-03-25T14:34:14.614Z,99004.06
2023-03-25T14:37:18.752Z,98995.09
2023-03-25T14:39:48.004Z,98978.81
2023-03-25T14:42:28.761Z,98914.91
2023-03-25T14:45:29.939Z,99001.16
2023-03-25T14:47:57.977Z,98978.44
2023-03-25T14:50:35.456Z,99001.47
2023-03-25T14:53:06.299Z,98988.28
2023-03-25T14:55:42.125Z,98988.25
2023-03-25T14:58:21.055Z,98981.28
2023-03-25T15:00:55.303Z,98979.78
2023-03-25T15:03:30.204Z,98992.91
2023-03-25T15:06:00.682Z,98972.13
2023-03-25T15:08:35.049Z,98972.25
2023-03-25T15:11:10.307Z,98952.78
2023-03-25T15:13:41.808Z,98968.34
2023-03-25T15:16:19.515Z,98938.03
2023-03-25T15:19:06.509Z,98911.16
2023-03-25T15:21:50.739Z,98943.81
2023-03-25T15:24:27.171Z,98952.47
2023-03-25T15:26:58.748Z,98933.97
2023-03-25T15:29:42.447Z,98947.72
2023-03-25T15:32:25.949Z,98966.13
2023-03-25T15:35:20.102Z,98958.63
2023-03-25T15:38:06.969Z,98959.03
2023-03-25T15:40:47.889Z,98962.13
2023-03-25T15:43:59.582Z,98977.13
2023-03-25T15:46:54.846Z,98982.22
2023-03-25T15:50:02.153Z,98985.13
2023-03-25T15:53:01.494Z,98994.06
2023-03-25T15:55:34.579Z,98984.50
2023-03-25T15:58:06.018Z,98998.41
2023-03-25T16:00:39.553Z,98992.19
2023-03-25T16:03:13.483Z,98987.19
2023-03-25T16:05:48.468Z,98940.31
2023-03-25T16:08:20.937Z,98979.72
2023-03-25T16:10:49.006Z,98981.28
2023-03-25T16:13:23.614Z,98984.72
2023-03-25T16:15:57.009Z,98981.28
2023-03-25T16:18:25.854Z,99003.56
2023-03-25T16:20:57.756Z,99012.88
2023-03-25T16:23:27.259Z,99012.09
2023-03-25T16:25:56.236Z,98993.53
2023-03-25T16:28:29.032Z,98991.44
2023-03-25T16:30:58.403Z,99007.13
2023-03-25T16:33:28.009Z,98995.72
2023-03-25T16:36:00.317Z,98997.66
2023-03-25T16:38:28.757Z,99001.66
2023-03-25T16:41:01.854Z,99000.03
2023-03-25T16:43:31.480Z,99001.47
2023-03-25T16:46:03.028Z,98920.84
2023-03-25T16:48:34.149Z,98987.03
2023-03-25T16:51:08.121Z,98956.09
2023-03-25T16:53:39.889Z,98980.69
2023-03-25T16:56:23.209Z,98977.25
2023-03-25T16:58:58.499Z,98967.50
2023-03-25T17:01:29.257Z,98979.91
2023-03-25T17:04:11.055Z,98977.59
2023-03-25T17:06:41.497Z,98970.75
2023-03-25T17:09:16.246Z,98978.91
2023-03-25T17:11:45.812Z,98985.41
2023-03-25T17:14:19.497Z,98980.75
2023-03-25T17:16:50.960Z,98959.91
2023-03-25T17:19:22.774Z,98995.75
2023-03-25T17:22:04.630Z,99015.81
2023-03-25T17:24:41.688Z,99035.13
2023-03-25T17:27:21.440Z,99087.69
2023-03-25T17:29:54.784Z,99084.56
2023-03-25T17:32:24.484Z,99084.88
2023-03-25T17:35:02.541Z,99083.72
2023-03-25T17:37:31.925Z,99056.66
2023-03-25T17:40:06.418Z,99065.84
2023-03-25T17:42:37.922Z,99069.19
2023-03-25T17:45:06.612Z,99059.53
2023-03-25T17:47:35.777Z,99072.47
2023-03-25T17:50:14.743Z,99067.81
2023-03-25T17:52:42.744Z,99068.81
2023-03-25T17:55:11.325Z,99063.72
2023-03-25T17:57:39.664Z,99055.88
2023-03-25T18:00:11.479Z,99063.41
2023-03-25T18:02:41.649Z,99072.88
2023-03-25T18:05:11.784Z,99060.97
2023-03-25T18:07:39.720Z,99068.81
2023-03-25T18:10:16.099Z,99038.59
2023-03-25T18:12:44.156Z,98979.84
2023-03-25T18:15:12.322Z,99092.53
2023-03-25T18:17:41.692Z,99095.91
2023-03-25T18:20:17.478Z,99099.44
2023-03-25T18:22:46.383Z,99133.53
2023-03-25T18:25:14.584Z,99131.81
2023-03-25T18:27:44.232Z,99130.09
2023-03-25T18:30:20.138Z,99113.81
2023-03-25T18:32:49.379Z,99066.41
2023-03-25T18:35:17.459Z,99138.25
2023-03-25T18:37:46.472Z,99117.47
2023-03-25T18:40:21.063Z,99130.91
2023-03-25T18:42:49.082Z,99124.75
2023-03-25T18:45:16.908Z,99127.66
2023-03-25T18:47:44.833Z,99140.81
2023-03-25T18:50:26.427Z,99136.31
2023-03-25T18:52:54.431Z,99133.69
2023-03-25T18:55:22.289Z,99137.16
2023-03-25T18:57:50.176Z,99131.94
2023-03-25T19:00:23.739Z,99132.97
2023-03-25T19:02:54.539Z,99133.00
2023-03-25T19:05:25.315Z,99137.91
2023-03-25T19:07:53.856Z,99140.63
2023-03-25T19:10:25.065Z,99029.53
2023-03-25T19:12:52.902Z,99148.91
2023-03-25T19:15:23.163Z,99152.91
2023-03-25T19:17:50.833Z,99157.84
2023-03-25T19:20:21.061Z,99125.56
2023-03-25T19:22:50.084Z,99160.50
2023-03-25T19:25:18.948Z,99167.88
2023-03-25T19:27:47.801Z,99161.50
2023-03-25T19:30:18.456Z,99146.22
2023-03-25T19:32:47.019Z,99189.16
2023-03-25T19:35:16.592Z,99157.75
2023-03-25T19:37:47.368Z,99182.72
2023-03-25T19:40:18.999Z,99178.00
2023-03-25T19:42:48.203Z,99161.56
2023-03-25T19:45:17.640Z,99086.41
2023-03-25T19:47:46.376Z,99195.34
2023-03-25T19:50:16.818Z,99187.53
2023-03-25T19:52:45.497Z,99184.81
2023-03-25T19:55:14.112Z,99159.13
2023-03-25T19:57:44.759Z,99191.13
2023-03-25T20:00:15.387Z,99179.56
2023-03-25T20:02:44.876Z,99199.63
2023-03-25T20:05:13.891Z,99204.81
2023-03-25T20:07:43.051Z,99175.59
2023-03-25T20:10:20.139Z,99187.41
2023-03-25T20:12:50.455Z,99206.22
2023-03-25T20:15:20.158Z,99203.53
2023-03-25T20:17:49.771Z,99194.31
2023-03-25T20:20:18.400Z,99183.16
2023-03-25T20:22:48.282Z,99197.47
2023-03-25T20:25:17.956Z,99197.69
2023-03-25T20:27:46.405Z,99201.88
2023-03-25T20:30:18.243Z,99203.00
2023-03-25T20:32:48.481Z,99194.38
2023-03-25T20:35:17.945Z,99207.59
2023-03-25T20:37:48.629Z,99191.28
2023-03-25T20:40:18.463Z,99199.47
2023-03-25T20:42:47.871Z,99194.47
2023-03-25T20:45:18.858Z,99215.72
2023-03-25T20:47:46.713Z,99204.56
2023-03-25T20:50:16.427Z,99207.97
2023-03-25T20:52:44.902Z,99173.91
2023-03-25T20:55:14.615Z,99206.00
2023-03-25T20:57:42.686Z,99172.34
2023-03-25T21:00:14.190Z,99193.47
2023-03-25T21:02:44.901Z,99171.72
2023-03-25T21:05:12.961Z,99196.78
2023-03-25T21:07:41.306Z,99202.72
2023-03-25T21:10:10.744Z,99201.13
2023-03-25T21:12:44.006Z,99215.13
2023-03-25T21:15:14.674Z,99206.00
2023-03-25T21:17:44.482Z,99219.69
2023-03-25T21:20:13.078Z,99201.72
2023-03-25T21:22:44.202Z,99221.50
2023-03-25T21:25:14.100Z,99222.69
2023-03-25T21:27:42.334Z,99190.91
2023-03-25T21:30:11.338Z,99229.13
2023-03-25T21:32:39.371Z,99230.78
2023-03-25T21:35:10.352Z,99233.69
2023-03-25T21:37:39.926Z,99239.50
2023-03-25T21:40:11.575Z,99232.28
2023-03-25T21:42:41.280Z,99225.69
2023-03-25T21:45:11.478Z,99237.16
2023-03-25T21:47:39.367Z,99243.13
2023-03-25T21:50:10.859Z,99243.75
2023-03-25T21:52:42.928Z,99242.00
2023-03-25T21:55:12.544Z,99228.38
2023-03-25T21:57:44.365Z,99249.09
2023-03-25T22:00:16.962Z,99217.59
2023-03-25T22:02:46.474Z,99241.63
2023-03-25T22:05:17.301Z,99231.50
2023-03-25T22:07:46.650Z,99214.09
2023-03-25T22:10:14.569Z,99240.91
2023-03-25T22:12:42.419Z,99253.50
2023-03-25T22:15:11.425Z,99240.75
2023-03-25T22:17:39.254Z,99242.34
2023-03-25T22:20:08.630Z,99215.22
2023-03-25T22:22:37.926Z,99242.97
2023-03-25T22:25:06.841Z,99248.63
2023-03-25T22:27:34.806Z,99248.31
2023-03-25T22:30:02.677Z,99240.94
2023-03-25T22:32:30.669Z,99244.78
2023-03-25T22:34:58.577Z,99251.91
2023-03-25T22:37:26.439Z,99257.50
2023-03-25T22:39:55.822Z,99261.09
2023-03-25T22:42:25.685Z,99263.38
2023-03-25T22:44:53.553Z,99260.72
2023-03-25T22:47:21.679Z,99270.56
2023-03-25T22:49:49.494Z,99270.00
2023-03-25T22:52:17.457Z,99259.59
2023-03-25T22:54:45.387Z,99254.06
2023-03-25T22:57:14.763Z,99256.38
2023-03-25T22:59:42.654Z,99269.66
2023-03-25T23:02:13.110Z,99272.53
2023-03-25T23:04:41.204Z,99277.78
2023-03-25T23:07:09.110Z,99271.44
2023-03-25T23:09:42.386Z,99277.97
2023-03-25T23:12:11.582Z,99270.38
2023-03-25T23:14:42.434Z,99287.31
2023-03-25T23:17:11.926Z,99283.38
2023-03-25T23:19:39.978Z,99283.00
2023-03-25T23:22:08.398Z,99281.34
2023-03-25T23:24:36.985Z,99274.56
2023-03-25T23:27:05.791Z,99276.47
2023-03-25T23:29:35.682Z,99270.81
2023-03-25T23:32:05.232Z,99281.59
2023-03-25T23:34:33.869Z,99250.66
2023-03-25T23:37:02.115Z,99295.94
2023-03-25T23:39:30.076Z,99278.06
2023-03-25T23:41:58.104Z,99295.16
2023-03-25T23:44:26.038Z,99290.22
2023-03-25T23:46:53.890Z,99299.72
2023-03-25T23:49:23.222Z,99285.41
2023-03-25T23:51:51.300Z,99299.25
2023-03-25T23:54:19.197Z,99299.13
2023-03-25T23:56:47.159Z,99200.75
2023-03-25T23:59:15.197Z,99300.53
